Key West International, FL

11:34 AM EDT on July 10, 2014 (GMT -0400)
Marathon (KMTH) Elev 7 ft | 24.73 °N, 81.05 °W | Change Station

Current weather conditions updated 475 days ago

Thunderstorm
Thunderstorm
88 °F
Feels Like 95 °F
N
10
Wind Variable Wind from ENE
Gusts 13 mph

Today is forecast to be Cooler than yesterday.

Today
High -- | Low -- °F
--% Chance of Precip.
Yesterday
High -- | Low -- °F
Precip. -- in
6:45 AM 8:19 PM
Waxing Gibbous, 95% visible
Pressure 29.94 in
Visibility 10.0 miles
Clouds Few 1800 ft
Scattered Clouds 2900 ft
Heat Index 95 °F
Dew Point 73 °F
Humidity 61%
Rainfall 0.00 in
Snow Depth Not available.
UV 9 out of 12
Pollen 3.70 out of 12
Air Quality Not available.
Flu Activity Sporadic
METAR KMTH 211553Z AUTO 04009KT 10SM FEW018 SCT029 24/16 A2994 RMK AO2 SLP139 T02390156

More Conditions Fewer Conditions

Pressure 29.94 in
Visibility 10.0 miles
Clouds Few 1800 ft
Scattered Clouds 2900 ft
Heat Index 95 °F
Dew Point 73 °F
Humidity 61%
Rainfall 0.00 in
Snow Depth Not available.
UV 9 out of 12
Pollen 3.70 out of 12
Air Quality Not available.
Flu Activity Sporadic
METAR KMTH 211553Z AUTO 04009KT 10SM FEW018 SCT029 24/16 A2994 RMK AO2 SLP139 T02390156

More Conditions Fewer Conditions

10-Day Weather Forecast

Almanac

Astronomy

Jul. 10, 2014 Rise Set
Actual Time 6:45 AM EDT 8:19 PM EDT
Civil Twilight 6:19 AM EDT 8:44 PM EDT
Nautical Twilight 5:49 AM EDT 9:15 PM EDT
Astronomical Twilight 5:17 AM EDT 9:46 PM EDT
Moon 6:36 PM EDT 4:49 AM EDT
Length of Visible Light 14h 24m
Length of Day
13h 34m
Tomorrow will be 0m 36s shorter.
Waxing Gibbous, 95% of the Moon is Illuminated
Today
Waxing Gibbous
Jul 12
Full
Jul 18
Last Quarter
Jul 26
New
Aug 3
First Quarter

Today's Extremes

State Highs State Lows

Community

WunderPhotos

Upload Photos

1,732,180 photos uploaded!

Nearby

Snow Depth

Station Depth Elevation
No new snow has been reported.

Earthquake Activity

City Distance Mag. Time & Date
No recent earthquake activity has been reported nearby.
Minimum magnitude displayed is 2.5.

Coastal Water Temperatures

Place Temperature
No Stations Reporting

Nearby Weather Stations

Station Location Temp. Heat Index Dew Point Humidity Wind Precip. Elev Updated Type
Key West, FL 89.2 °F 104 °F 78 °F 70% ESE  at  2.0 mph 0.00 in / hr 6 ft 11:33 AM EDT Normal
Big Coppitt Key Gulfside, Key West, FL 94.1 °F 110 °F 78 °F 59% NE  at  4.7 mph - / hr 31 ft 11:22 AM EDT Normal
MARITIME , Key West, FL 84 °F 81 °F - - East  at  13 mph 0.00 in / hr 0 ft 9:50 AM EDT MADIS
APRSWXNET Cudjoe Key FL , Summerland Key, FL 89 °F 102 °F 77 °F 69% SE  at  7 mph 0.00 in / hr 16 ft 10:43 AM EDT MADIS
Cudjoe Key, FL 88.0 °F 101 °F 77 °F 71% SE  at  12.0 mph 0.00 in / hr 16 ft 11:34 AM EDT Rapid Fire
Breezeswept Estates - Bird Lake - Ramrod, Ramrod Key, FL 87.1 °F 99 °F 77 °F 72% ESE  at  8.7 mph 0.00 in / hr 25 ft 11:34 AM EDT Rapid Fire

Show More Stations Show Fewer Stations